Time;durP1;ratioP1;P1;durP2;ratioP2;P2;SDS_P1;SDS_P2;PMS_P1;PMS_P2;Temp;Humidity;BMP_temperature;BMP_pressure;BME280_temperature;BME280_humidity;BME280_pressure;Samples;Min_cycle;Max_cycle;Signal;HPM_P1;HPM_P2
2023/03/12 00:00:37;;;;;;;11.75;6.22;;;-2.10;99.90;;;;;;4983890;28;20049;-72
2023/03/12 00:03:03;;;;;;;12.63;5.85;;;-2.00;99.90;;;;;;4998333;28;20037;-72
2023/03/12 00:05:28;;;;;;;10.33;5.53;;;-2.00;99.90;;;;;;5001553;28;20451;-72
2023/03/12 00:07:58;;;;;;;11.83;5.37;;;-1.90;99.90;;;;;;4998738;28;20038;-72
2023/03/12 00:10:24;;;;;;;12.38;5.18;;;-1.90;99.90;;;;;;4979544;28;20403;-72
2023/03/12 00:12:50;;;;;;;8.57;4.75;;;-1.90;99.90;;;;;;4995599;28;20038;-72
2023/03/12 00:15:18;;;;;;;9.75;5.00;;;-1.90;99.90;;;;;;4976722;28;20113;-72
2023/03/12 00:17:44;;;;;;;9.98;5.57;;;-1.90;99.90;;;;;;4981570;28;20057;-73
2023/03/12 00:20:11;;;;;;;11.67;5.37;;;-1.90;99.90;;;;;;5008892;28;20071;-72
2023/03/12 00:22:37;;;;;;;10.55;5.03;;;-1.90;99.90;;;;;;5008629;28;20057;-72
2023/03/12 00:25:04;;;;;;;13.00;5.32;;;-1.90;99.90;;;;;;5007902;28;20074;-72
2023/03/12 00:27:30;;;;;;;10.55;5.28;;;-1.90;99.90;;;;;;5002189;28;20049;-72
2023/03/12 00:29:55;;;;;;;10.67;5.30;;;-2.00;99.90;;;;;;5006328;28;20034;-72
2023/03/12 00:32:21;;;;;;;16.97;5.97;;;-2.00;99.90;;;;;;5006005;28;20104;-72
2023/03/12 00:34:51;;;;;;;9.30;5.78;;;-2.00;99.90;;;;;;5003606;28;21100;-72
2023/03/12 00:37:17;;;;;;;9.50;5.80;;;-2.10;99.90;;;;;;5007643;28;20718;-72
2023/03/12 00:39:43;;;;;;;16.13;6.80;;;-2.10;99.90;;;;;;4988557;28;20080;-72
2023/03/12 00:42:09;;;;;;;12.13;6.50;;;-2.10;99.90;;;;;;5006725;28;20112;-72
2023/03/12 00:44:34;;;;;;;13.30;6.53;;;-2.10;99.90;;;;;;5007778;28;20042;-72
2023/03/12 00:47:00;;;;;;;13.23;5.97;;;-2.10;99.90;;;;;;4991060;28;20821;-73
2023/03/12 00:49:25;;;;;;;11.83;6.30;;;-2.20;99.90;;;;;;5008408;28;20048;-72
2023/03/12 00:51:52;;;;;;;11.73;6.50;;;-2.20;99.90;;;;;;5009008;28;20104;-72
2023/03/12 00:54:18;;;;;;;12.00;6.70;;;-2.20;99.90;;;;;;5008268;28;20046;-72
2023/03/12 00:56:45;;;;;;;11.40;6.78;;;-2.20;99.90;;;;;;4986791;28;20050;-72
2023/03/12 00:59:12;;;;;;;11.82;6.13;;;-2.20;99.90;;;;;;4988356;28;20092;-72
2023/03/12 01:01:38;;;;;;;13.15;6.68;;;-2.20;99.90;;;;;;5007411;28;20049;-72
2023/03/12 01:04:03;;;;;;;11.23;6.10;;;-2.20;99.90;;;;;;5007164;28;20064;-72
2023/03/12 01:06:29;;;;;;;17.97;6.67;;;-2.20;99.90;;;;;;4989753;28;20517;-72
2023/03/12 01:08:55;;;;;;;12.23;6.90;;;-2.20;99.90;;;;;;5005987;28;20485;-72
2023/03/12 01:11:21;;;;;;;10.43;6.20;;;-2.20;99.90;;;;;;5007078;28;20048;-72
2023/03/12 01:13:47;;;;;;;10.10;6.43;;;-2.20;99.90;;;;;;5005794;28;20038;-72
2023/03/12 01:16:13;;;;;;;13.57;6.70;;;-2.10;99.90;;;;;;4981649;28;20065;-72
2023/03/12 01:18:39;;;;;;;11.40;6.70;;;-2.10;99.90;;;;;;5004516;28;20053;-72
2023/03/12 01:21:08;;;;;;;10.63;5.97;;;-2.10;99.90;;;;;;4981298;28;20548;-72
2023/03/12 01:23:34;;;;;;;13.35;6.43;;;-2.00;99.90;;;;;;4953763;28;20547;-73
2023/03/12 01:25:59;;;;;;;15.63;6.90;;;-2.00;99.90;;;;;;4955285;28;20030;-72
2023/03/12 01:28:25;;;;;;;18.50;6.53;;;-1.90;99.90;;;;;;5022041;28;20046;-72
2023/03/12 01:30:52;;;;;;;10.63;5.70;;;-1.90;99.90;;;;;;4989434;28;20053;-72
2023/03/12 01:33:17;;;;;;;10.70;6.57;;;-1.80;99.90;;;;;;5011656;28;20280;-73
2023/03/12 01:35:43;;;;;;;10.87;5.63;;;-1.70;99.90;;;;;;4998394;28;20101;-72
2023/03/12 01:38:14;;;;;;;14.00;5.72;;;-1.70;99.90;;;;;;5002969;28;20041;-72
2023/03/12 01:40:44;;;;;;;11.10;5.50;;;-1.70;99.90;;;;;;4990795;28;20038;-73
2023/03/12 01:43:29;;;;;;;11.02;5.90;;;-1.60;99.90;;;;;;5021271;28;20038;-73
2023/03/12 01:46:19;;;;;;;13.27;6.03;;;-1.60;99.90;;;;;;4981275;28;20041;-73
2023/03/12 01:48:49;;;;;;;8.80;5.55;;;-1.50;99.90;;;;;;4984742;28;20038;-73
2023/03/12 01:51:17;;;;;;;12.98;5.75;;;-1.50;99.90;;;;;;4994687;28;20080;-73
2023/03/12 01:53:48;;;;;;;10.25;5.60;;;-1.40;99.90;;;;;;5006273;28;20042;-73
2023/03/12 01:56:17;;;;;;;12.32;5.47;;;-1.40;99.90;;;;;;4992346;28;20038;-73
2023/03/12 01:58:48;;;;;;;10.77;5.45;;;-1.40;99.90;;;;;;4988892;28;20082;-73
2023/03/12 02:01:16;;;;;;;7.05;5.28;;;-1.30;99.90;;;;;;4990267;28;20512;-73
2023/03/12 02:03:45;;;;;;;10.85;5.47;;;-1.30;99.90;;;;;;4986814;28;20519;-73
2023/03/12 02:06:13;;;;;;;11.63;5.60;;;-1.20;99.90;;;;;;4990700;28;20065;-73
2023/03/12 02:08:43;;;;;;;7.72;4.88;;;-1.20;99.90;;;;;;4993390;28;20103;-73
2023/03/12 02:11:09;;;;;;;10.85;5.93;;;-1.10;99.90;;;;;;4993736;28;20052;-73
2023/03/12 02:13:36;;;;;;;12.38;6.00;;;-1.10;99.90;;;;;;4990301;28;20724;-73
2023/03/12 02:16:02;;;;;;;9.85;5.80;;;-1.00;99.90;;;;;;5001632;28;20046;-73
2023/03/12 02:18:28;;;;;;;10.73;5.77;;;-1.00;99.90;;;;;;4985158;28;20094;-73
2023/03/12 02:21:18;;;;;;;8.98;5.75;;;-0.90;99.90;;;;;;4988222;28;20352;-72
2023/03/12 02:24:06;;;;;;;10.95;5.80;;;-0.90;99.90;;;;;;4987598;28;20078;-73
2023/03/12 02:26:33;;;;;;;13.25;7.47;;;-0.90;99.90;;;;;;5007998;28;20041;-73
2023/03/12 02:28:59;;;;;;;14.02;7.95;;;-0.90;99.90;;;;;;4994808;28;20717;-72
2023/03/12 02:31:31;;;;;;;15.10;8.70;;;-0.90;99.90;;;;;;4972307;28;20699;-73
2023/03/12 02:33:59;;;;;;;12.63;7.25;;;-0.90;99.90;;;;;;4987709;28;20132;-73
2023/03/12 02:36:25;;;;;;;15.77;8.10;;;-0.90;99.90;;;;;;4988938;28;20084;-73
2023/03/12 02:38:53;;;;;;;10.27;5.60;;;-0.90;99.90;;;;;;5003957;28;20507;-73
2023/03/12 02:41:30;;;;;;;11.57;5.13;;;-0.80;99.90;;;;;;4994735;28;20483;-73
2023/03/12 02:44:13;;;;;;;10.60;5.10;;;-0.80;99.90;;;;;;4974348;28;20050;-73
2023/03/12 02:46:45;;;;;;;8.18;4.63;;;-0.80;99.90;;;;;;4980437;28;20038;-73
2023/03/12 02:49:12;;;;;;;10.20;4.63;;;-0.80;99.90;;;;;;4986443;28;20109;-73
2023/03/12 02:51:39;;;;;;;9.70;5.75;;;-0.70;99.90;;;;;;4982097;28;20049;-73
2023/03/12 02:54:05;;;;;;;12.85;5.10;;;-0.70;99.90;;;;;;4988555;28;20038;-73
2023/03/12 02:56:31;;;;;;;7.70;5.18;;;-0.70;99.90;;;;;;4962170;28;20043;-73
2023/03/12 02:58:57;;;;;;;9.57;4.67;;;-0.60;99.90;;;;;;4971479;28;20056;-73
2023/03/12 03:01:23;;;;;;;9.93;4.37;;;-0.60;99.90;;;;;;4994864;28;20417;-73
2023/03/12 03:03:49;;;;;;;8.80;4.80;;;-0.60;99.90;;;;;;4985208;28;20046;-73
2023/03/12 03:06:16;;;;;;;7.50;4.37;;;-0.60;99.90;;;;;;4987397;28;20299;-73
2023/03/12 03:08:42;;;;;;;7.28;4.10;;;-0.60;99.90;;;;;;4989225;28;20289;-73
2023/03/12 03:11:08;;;;;;;10.00;4.20;;;-0.60;99.90;;;;;;4978437;28;20129;-73
2023/03/12 03:13:34;;;;;;;8.57;4.20;;;-0.60;99.90;;;;;;4969244;28;20105;-73
2023/03/12 03:16:00;;;;;;;7.90;4.07;;;-0.60;99.90;;;;;;4986612;28;20037;-73
2023/03/12 03:18:27;;;;;;;8.98;4.07;;;-0.60;99.90;;;;;;4996644;28;20651;-72
2023/03/12 03:21:05;;;;;;;11.23;3.80;;;-0.60;99.90;;;;;;5004985;28;20182;-73
2023/03/12 03:23:31;;;;;;;5.93;4.00;;;-0.50;99.90;;;;;;5004736;28;20486;-73
2023/03/12 03:25:58;;;;;;;9.68;3.85;;;-0.50;99.90;;;;;;4985411;28;20038;-73
2023/03/12 03:28:26;;;;;;;9.00;3.90;;;-0.50;99.90;;;;;;4993616;28;20042;-73
2023/03/12 03:30:56;;;;;;;5.43;3.53;;;-0.50;99.90;;;;;;4984419;28;20049;-73
2023/03/12 03:33:23;;;;;;;9.43;4.28;;;-0.50;99.90;;;;;;5018406;28;20054;-73
2023/03/12 03:35:49;;;;;;;6.80;4.28;;;-0.50;99.90;;;;;;5002664;28;20477;-73
2023/03/12 03:38:15;;;;;;;6.90;4.10;;;-0.50;99.90;;;;;;4985857;28;20060;-73
2023/03/12 03:40:41;;;;;;;7.22;3.47;;;-0.60;99.90;;;;;;5002751;28;20068;-73
2023/03/12 03:43:06;;;;;;;8.87;4.27;;;-0.60;99.90;;;;;;4992272;28;20521;-73
2023/03/12 03:45:32;;;;;;;7.63;4.07;;;-0.60;99.90;;;;;;5001593;28;20147;-72
2023/03/12 03:47:58;;;;;;;6.63;3.80;;;-0.60;99.90;;;;;;4987368;28;20049;-73
2023/03/12 03:50:23;;;;;;;9.30;4.57;;;-0.60;99.90;;;;;;4994186;28;20049;-73
2023/03/12 03:52:49;;;;;;;8.70;4.17;;;-0.60;99.90;;;;;;4971594;28;20096;-73
2023/03/12 03:55:15;;;;;;;8.47;3.90;;;-0.60;99.90;;;;;;4991104;28;20048;-73
2023/03/12 03:57:41;;;;;;;9.20;3.93;;;-0.60;99.90;;;;;;4982576;28;20057;-73
2023/03/12 04:00:08;;;;;;;8.50;4.00;;;-0.50;99.90;;;;;;5002952;28;20068;-73
2023/03/12 04:02:35;;;;;;;8.60;4.63;;;-0.50;99.90;;;;;;4989840;28;20038;-73
2023/03/12 04:05:01;;;;;;;5.53;3.75;;;-0.50;99.90;;;;;;5006638;28;20045;-73
2023/03/12 04:07:27;;;;;;;6.32;4.25;;;-0.50;99.90;;;;;;4983756;28;20095;-73
2023/03/12 04:09:53;;;;;;;10.82;4.20;;;-0.40;99.90;;;;;;5011072;28;20049;-73
2023/03/12 04:12:19;;;;;;;8.60;3.80;;;-0.40;99.90;;;;;;5002550;28;20045;-73
2023/03/12 04:14:45;;;;;;;9.05;4.47;;;-0.40;99.90;;;;;;5024582;28;20049;-73
2023/03/12 04:17:11;;;;;;;12.90;4.20;;;-0.30;99.90;;;;;;5011729;28;20044;-72
2023/03/12 04:19:37;;;;;;;6.67;3.97;;;-0.30;99.90;;;;;;4994292;28;20061;-73
2023/03/12 04:22:03;;;;;;;8.30;4.30;;;-0.30;99.90;;;;;;4990857;28;20055;-73
2023/03/12 04:24:29;;;;;;;11.57;4.30;;;-0.20;99.90;;;;;;4994113;28;20045;-73
2023/03/12 04:26:56;;;;;;;7.53;4.78;;;-0.20;99.90;;;;;;5011366;28;20378;-73
2023/03/12 04:29:22;;;;;;;10.18;4.60;;;-0.20;99.90;;;;;;4996891;28;20439;-73
2023/03/12 04:31:47;;;;;;;6.37;4.00;;;-0.20;99.90;;;;;;4993605;28;20037;-73
2023/03/12 04:34:13;;;;;;;8.33;4.67;;;-0.20;99.90;;;;;;4999324;28;20044;-72
2023/03/12 04:36:39;;;;;;;7.57;4.40;;;-0.10;99.90;;;;;;4973515;28;20080;-73
2023/03/12 04:39:06;;;;;;;12.00;4.67;;;-0.10;99.90;;;;;;4991795;28;20120;-73
2023/03/12 04:41:35;;;;;;;8.77;4.25;;;-0.20;99.90;;;;;;4976213;28;20576;-73
2023/03/12 04:44:01;;;;;;;8.25;4.90;;;-0.20;99.90;;;;;;4989065;28;20088;-73
2023/03/12 04:46:27;;;;;;;9.00;4.60;;;-0.20;99.90;;;;;;5002578;28;20493;-73
2023/03/12 04:48:53;;;;;;;9.82;4.30;;;-0.10;99.90;;;;;;4991999;28;20129;-73
2023/03/12 04:51:19;;;;;;;7.87;4.77;;;-0.10;99.90;;;;;;5013184;28;20043;-73
2023/03/12 04:53:45;;;;;;;7.67;4.77;;;-0.10;99.90;;;;;;4992552;28;20049;-73
2023/03/12 04:56:11;;;;;;;9.50;5.70;;;-0.10;99.90;;;;;;5027368;28;20497;-73
2023/03/12 04:58:36;;;;;;;8.00;5.33;;;-0.10;99.90;;;;;;5007829;28;20225;-73
2023/03/12 05:01:04;;;;;;;10.33;5.23;;;-0.10;99.90;;;;;;5010073;28;20037;-73
2023/03/12 05:03:30;;;;;;;9.20;5.18;;;-0.10;99.90;;;;;;4999527;28;20657;-73
2023/03/12 05:05:56;;;;;;;8.27;5.40;;;-0.10;99.90;;;;;;4972794;28;20049;-73
2023/03/12 05:08:22;;;;;;;9.17;5.00;;;-0.10;99.90;;;;;;5006886;28;20091;-72
2023/03/12 05:10:47;;;;;;;10.03;5.80;;;-0.10;99.90;;;;;;4990984;28;20288;-72
2023/03/12 05:13:19;;;;;;;13.50;5.53;;;-0.10;99.90;;;;;;4984987;28;20041;-72
2023/03/12 05:15:49;;;;;;;9.82;5.97;;;-0.10;99.90;;;;;;5006503;28;20050;-73
2023/03/12 05:18:15;;;;;;;8.73;5.43;;;-0.10;99.90;;;;;;5003200;28;20058;-73
2023/03/12 05:20:41;;;;;;;10.98;6.07;;;-0.10;99.90;;;;;;4995402;28;20084;-73
2023/03/12 05:23:07;;;;;;;9.00;5.70;;;-0.10;99.90;;;;;;5005718;28;20498;-73
2023/03/12 05:25:36;;;;;;;12.07;6.37;;;-0.10;99.90;;;;;;5026871;28;20037;-73
2023/03/12 05:28:02;;;;;;;9.20;6.10;;;-0.10;99.90;;;;;;5010194;28;20080;-73
2023/03/12 05:30:28;;;;;;;11.53;6.60;;;0.00;99.90;;;;;;5008456;28;20406;-73
2023/03/12 05:32:53;;;;;;;9.90;6.37;;;-0.10;99.90;;;;;;5008724;28;20041;-72
2023/03/12 05:35:19;;;;;;;11.97;6.47;;;0.00;99.90;;;;;;5018176;28;20037;-73
2023/03/12 05:37:45;;;;;;;12.23;6.53;;;0.00;99.90;;;;;;5004762;28;20531;-73
2023/03/12 05:40:11;;;;;;;12.33;6.27;;;0.00;99.90;;;;;;4982818;28;20038;-73
2023/03/12 05:42:37;;;;;;;11.85;6.63;;;0.00;99.90;;;;;;4978415;28;20048;-73
2023/03/12 05:45:04;;;;;;;9.73;5.90;;;0.00;99.90;;;;;;4969450;28;20067;-73
2023/03/12 05:47:30;;;;;;;9.82;5.50;;;0.00;99.90;;;;;;5008149;28;20383;-73
2023/03/12 05:49:56;;;;;;;9.17;5.17;;;0.00;99.90;;;;;;4981609;28;20081;-72
2023/03/12 05:52:21;;;;;;;9.33;5.33;;;0.00;99.90;;;;;;5004658;28;20046;-72
2023/03/12 05:54:47;;;;;;;8.80;4.97;;;0.10;99.90;;;;;;4993063;28;20053;-72
2023/03/12 05:57:13;;;;;;;9.03;4.80;;;0.10;99.90;;;;;;5028828;28;20405;-72
2023/03/12 05:59:39;;;;;;;9.05;5.35;;;0.10;99.90;;;;;;5004802;28;20497;-73
2023/03/12 06:02:04;;;;;;;8.33;4.53;;;0.10;99.90;;;;;;4989258;28;20046;-73
2023/03/12 06:04:30;;;;;;;10.50;5.30;;;0.10;99.90;;;;;;4998696;28;20454;-73
2023/03/12 06:06:56;;;;;;;12.50;6.27;;;0.10;99.90;;;;;;4968540;28;20133;-73
2023/03/12 06:09:22;;;;;;;10.50;5.73;;;0.20;99.90;;;;;;4982810;28;20046;-74
2023/03/12 06:11:47;;;;;;;12.80;5.27;;;0.20;99.90;;;;;;5002446;28;20068;-73
2023/03/12 06:14:13;;;;;;;8.43;4.80;;;0.20;99.90;;;;;;4984110;28;20045;-73
2023/03/12 06:16:39;;;;;;;7.20;4.47;;;0.30;99.90;;;;;;5000887;28;20049;-73
2023/03/12 06:19:06;;;;;;;8.23;4.72;;;0.30;99.90;;;;;;4983198;28;20119;-72
2023/03/12 06:21:34;;;;;;;6.63;4.15;;;0.30;99.90;;;;;;5024004;28;20049;-72
2023/03/12 06:24:00;;;;;;;7.10;4.55;;;0.30;99.90;;;;;;4988978;28;20544;-72
2023/03/12 06:26:27;;;;;;;8.75;5.03;;;0.40;99.90;;;;;;4999199;28;20481;-73
2023/03/12 06:28:53;;;;;;;8.77;5.30;;;0.40;99.90;;;;;;5001838;28;20045;-73
2023/03/12 06:31:20;;;;;;;10.38;5.53;;;0.30;99.90;;;;;;5009610;28;20041;-73
2023/03/12 06:33:46;;;;;;;10.65;5.55;;;0.30;99.90;;;;;;4977078;28;20041;-73
2023/03/12 06:36:12;;;;;;;10.93;5.72;;;0.30;99.90;;;;;;5007171;28;20485;-73
2023/03/12 06:38:38;;;;;;;12.80;5.70;;;0.30;99.90;;;;;;4979705;28;20095;-73
2023/03/12 06:41:10;;;;;;;13.60;5.87;;;0.30;99.90;;;;;;4985063;28;20284;-73
2023/03/12 06:43:37;;;;;;;11.13;5.47;;;0.30;99.90;;;;;;5009196;28;20099;-73
2023/03/12 06:46:04;;;;;;;11.82;5.72;;;0.30;99.90;;;;;;4997583;28;20135;-73
2023/03/12 06:48:40;;;;;;;8.65;5.30;;;0.30;99.90;;;;;;4998194;28;20045;-73
2023/03/12 06:51:07;;;;;;;11.50;5.80;;;0.30;99.90;;;;;;5003631;28;20041;-73
2023/03/12 06:53:33;;;;;;;9.85;5.22;;;0.20;99.90;;;;;;4974516;28;20069;-73
2023/03/12 06:55:59;;;;;;;8.35;4.90;;;0.30;99.90;;;;;;5025147;28;20041;-73
2023/03/12 06:58:25;;;;;;;12.15;6.05;;;0.20;99.90;;;;;;4989086;28;20045;-73
2023/03/12 07:00:52;;;;;;;10.20;5.70;;;0.20;99.90;;;;;;4998993;28;20077;-73
2023/03/12 07:03:18;;;;;;;8.30;5.22;;;0.20;99.90;;;;;;5005995;28;20050;-73
2023/03/12 07:05:45;;;;;;;8.65;5.95;;;0.20;99.90;;;;;;5002108;28;20096;-73
2023/03/12 07:08:12;;;;;;;11.75;6.20;;;0.20;99.90;;;;;;4998224;28;20496;-73
2023/03/12 07:10:38;;;;;;;11.07;6.15;;;0.20;99.90;;;;;;4988975;28;20040;-73
2023/03/12 07:13:03;;;;;;;8.27;5.70;;;0.20;99.90;;;;;;4984164;28;20490;-73
2023/03/12 07:15:29;;;;;;;12.37;6.33;;;0.20;99.90;;;;;;5009937;28;20542;-73
2023/03/12 07:17:59;;;;;;;11.93;6.00;;;0.20;99.90;;;;;;4998500;28;20133;-73
2023/03/12 07:20:25;;;;;;;11.40;5.43;;;0.20;99.90;;;;;;5019779;28;20037;-73
2023/03/12 07:22:51;;;;;;;11.27;5.80;;;0.20;99.90;;;;;;4991693;28;20506;-72
2023/03/12 07:25:17;;;;;;;11.23;5.50;;;0.20;99.90;;;;;;4999520;28;20046;-73
2023/03/12 07:27:42;;;;;;;11.07;5.70;;;0.20;99.90;;;;;;5004646;28;20065;-73
2023/03/12 07:30:09;;;;;;;9.03;5.57;;;0.20;99.90;;;;;;5004144;28;20096;-73
2023/03/12 07:32:35;;;;;;;13.50;6.07;;;0.20;99.90;;;;;;4980709;28;20081;-73
2023/03/12 07:35:02;;;;;;;10.80;5.60;;;0.20;99.90;;;;;;4971443;28;20140;-73
2023/03/12 07:37:28;;;;;;;8.60;5.00;;;0.20;99.90;;;;;;4997194;28;20124;-73
2023/03/12 07:39:54;;;;;;;8.63;6.07;;;0.30;99.90;;;;;;4990351;28;20129;-73
2023/03/12 07:42:21;;;;;;;12.30;5.70;;;0.30;99.90;;;;;;4978265;28;20099;-73
2023/03/12 07:44:46;;;;;;;7.57;5.35;;;0.30;99.90;;;;;;4998903;28;20046;-73
2023/03/12 07:47:13;;;;;;;13.23;5.73;;;0.30;99.90;;;;;;4991576;28;20045;-73
2023/03/12 07:49:40;;;;;;;7.85;5.50;;;0.30;99.90;;;;;;4999962;28;20042;-73
2023/03/12 07:52:08;;;;;;;9.32;5.93;;;0.30;99.90;;;;;;5004897;28;20079;-73
2023/03/12 07:54:35;;;;;;;9.65;5.75;;;0.30;99.90;;;;;;5001445;28;20121;-73
2023/03/12 07:57:01;;;;;;;8.30;5.22;;;0.30;99.90;;;;;;4999419;28;20056;-73
2023/03/12 07:59:26;;;;;;;8.50;5.07;;;0.30;99.90;;;;;;5008188;28;20037;-72
2023/03/12 08:01:52;;;;;;;12.60;5.47;;;0.30;99.90;;;;;;5005883;28;20049;-73
2023/03/12 08:04:18;;;;;;;8.48;6.03;;;0.30;99.90;;;;;;4998789;28;20045;-73
2023/03/12 08:06:44;;;;;;;10.93;5.07;;;0.40;99.90;;;;;;5007243;28;20033;-73
2023/03/12 08:09:10;;;;;;;6.80;5.30;;;0.40;99.90;;;;;;5004152;28;20324;-73
2023/03/12 08:11:36;;;;;;;9.67;5.60;;;0.40;99.90;;;;;;4997201;28;20072;-73
2023/03/12 08:14:03;;;;;;;9.57;6.10;;;0.40;99.90;;;;;;4999490;28;20291;-73
2023/03/12 08:16:29;;;;;;;10.02;5.97;;;0.40;99.90;;;;;;4997335;28;20288;-73
2023/03/12 08:18:55;;;;;;;11.43;6.40;;;0.50;99.90;;;;;;4996818;28;20135;-73
2023/03/12 08:21:20;;;;;;;10.90;7.07;;;0.50;99.90;;;;;;5001919;28;20094;-73
2023/03/12 08:23:46;;;;;;;12.87;6.10;;;0.60;99.90;;;;;;5005271;28;20045;-73
2023/03/12 08:26:12;;;;;;;12.67;7.00;;;0.60;99.90;;;;;;4998474;28;20281;-73
2023/03/12 08:28:38;;;;;;;13.17;6.70;;;0.70;99.90;;;;;;5004452;28;20387;-73
2023/03/12 08:31:05;;;;;;;10.07;6.40;;;0.70;99.90;;;;;;4997097;28;20577;-73
2023/03/12 08:33:31;;;;;;;20.15;8.40;;;0.80;99.90;;;;;;4985110;28;20412;-73
2023/03/12 08:35:56;;;;;;;8.97;6.23;;;0.80;99.90;;;;;;5000081;28;20128;-73
2023/03/12 08:38:22;;;;;;;10.23;6.20;;;0.80;99.90;;;;;;5006384;28;20780;-73
2023/03/12 08:40:58;;;;;;;13.37;7.17;;;0.80;99.90;;;;;;4973323;28;20057;-73
2023/03/12 08:43:25;;;;;;;16.85;7.80;;;0.80;99.90;;;;;;4992361;28;20144;-72
2023/03/12 08:45:59;;;;;;;14.93;7.72;;;0.80;99.90;;;;;;5003893;28;20551;-73
2023/03/12 08:48:26;;;;;;;15.38;8.00;;;0.90;99.90;;;;;;5005523;28;20064;-73
2023/03/12 08:50:55;;;;;;;14.00;8.00;;;0.90;99.90;;;;;;5007111;28;20056;-73
2023/03/12 08:53:22;;;;;;;13.48;8.25;;;0.90;99.90;;;;;;4997286;28;20064;-72
2023/03/12 08:55:47;;;;;;;16.80;8.15;;;0.90;99.90;;;;;;4998636;28;20542;-72
2023/03/12 08:58:13;;;;;;;11.00;7.87;;;0.90;99.90;;;;;;4962735;28;20041;-73
2023/03/12 09:00:39;;;;;;;15.17;8.60;;;0.90;99.90;;;;;;4972260;28;20041;-72
2023/03/12 09:03:04;;;;;;;11.70;7.90;;;0.90;99.90;;;;;;4999092;28;20072;-72
2023/03/12 09:05:32;;;;;;;12.67;7.83;;;0.90;99.90;;;;;;4996061;28;20041;-72
2023/03/12 09:07:58;;;;;;;11.57;8.00;;;0.90;99.90;;;;;;4996352;28;20044;-72
2023/03/12 09:10:25;;;;;;;11.73;8.17;;;0.90;99.90;;;;;;4992916;28;20487;-72
2023/03/12 09:12:51;;;;;;;12.38;8.02;;;1.00;99.90;;;;;;4991002;28;20038;-72
2023/03/12 09:15:17;;;;;;;13.13;8.40;;;1.00;99.90;;;;;;4998269;28;20056;-72
2023/03/12 09:17:43;;;;;;;11.87;7.80;;;1.00;99.90;;;;;;4982410;28;20056;-72
2023/03/12 09:20:12;;;;;;;12.80;7.80;;;1.00;99.90;;;;;;4994327;28;20095;-72
2023/03/12 09:22:39;;;;;;;13.10;7.72;;;1.10;99.90;;;;;;4997166;28;20054;-72
2023/03/12 09:25:07;;;;;;;14.82;8.02;;;1.10;99.90;;;;;;4997400;28;20498;-73
2023/03/12 09:27:42;;;;;;;12.63;8.00;;;1.10;99.90;;;;;;5014484;28;20033;-73
2023/03/12 09:30:11;;;;;;;11.38;7.25;;;1.20;99.90;;;;;;4998210;28;20034;-72
2023/03/12 09:32:37;;;;;;;14.98;8.30;;;1.20;99.90;;;;;;4997218;28;20464;-72
2023/03/12 09:35:17;;;;;;;13.07;7.63;;;1.30;99.90;;;;;;4998892;28;20072;-73
2023/03/12 09:37:52;;;;;;;13.35;7.93;;;1.30;99.90;;;;;;4982282;28;20060;-72
2023/03/12 09:40:22;;;;;;;11.40;7.70;;;1.40;99.90;;;;;;5001637;28;20049;-72
2023/03/12 09:42:48;;;;;;;14.68;8.57;;;1.40;99.90;;;;;;4984402;28;20108;-73
2023/03/12 09:45:21;;;;;;;14.77;7.90;;;1.50;99.90;;;;;;4996129;28;20504;-72
2023/03/12 09:47:51;;;;;;;15.65;8.15;;;1.50;99.90;;;;;;5013772;28;20547;-72
2023/03/12 09:50:39;;;;;;;11.15;7.30;;;1.50;99.90;;;;;;5005998;28;20544;-73
2023/03/12 09:53:11;;;;;;;11.80;8.20;;;1.60;99.90;;;;;;5002614;28;20033;-73
2023/03/12 09:55:44;;;;;;;16.75;9.45;;;1.70;99.90;;;;;;5000921;28;20133;-73
2023/03/12 09:58:37;;;;;;;12.98;8.73;;;1.70;99.90;;;;;;5012021;28;20042;-73
2023/03/12 10:01:27;;;;;;;;;;;1.80;99.90;;;;;;4995079;28;20048;-72
2023/03/12 10:04:06;;;;;;;14.88;8.45;;;1.90;99.90;;;;;;4982659;28;19917;-73
2023/03/12 10:06:42;;;;;;;16.13;9.43;;;1.90;99.90;;;;;;4998363;28;20041;-73
2023/03/12 10:09:27;;;;;;;16.23;8.57;;;2.00;99.90;;;;;;4996281;28;20048;-73
2023/03/12 10:12:15;;;;;;;15.02;9.13;;;2.00;99.90;;;;;;4998603;28;20111;-73
2023/03/12 10:14:50;;;;;;;13.80;8.75;;;2.00;99.90;;;;;;5016859;28;20040;-72
2023/03/12 10:17:37;;;;;;;15.18;8.70;;;2.00;99.90;;;;;;5016314;28;20049;-73
2023/03/12 10:20:21;;;;;;;14.43;8.98;;;2.20;99.90;;;;;;4983390;28;20045;-73
2023/03/12 10:23:09;;;;;;;16.17;8.75;;;2.40;99.90;;;;;;4978007;28;20498;-73
2023/03/12 10:25:51;;;;;;;13.70;9.13;;;2.40;99.90;;;;;;4976860;28;20125;-73
2023/03/12 10:28:31;;;;;;;15.55;9.00;;;2.40;99.90;;;;;;4981743;28;20030;-73
2023/03/12 10:31:04;;;;;;;17.52;9.13;;;2.50;99.90;;;;;;4982204;28;20046;-73
2023/03/12 10:33:52;;;;;;;16.50;9.25;;;2.50;99.90;;;;;;4978677;28;20042;-73
2023/03/12 10:36:22;;;;;;;18.55;9.68;;;2.50;99.90;;;;;;4977519;28;20045;-73
2023/03/12 10:38:48;;;;;;;18.48;11.05;;;2.50;99.90;;;;;;4973835;28;20046;-73
2023/03/12 10:41:24;;;;;;;14.77;9.80;;;2.50;99.90;;;;;;4977530;28;20077;-73
2023/03/12 10:43:50;;;;;;;17.25;10.05;;;2.60;99.90;;;;;;4978408;28;20041;-73
2023/03/12 10:46:38;;;;;;;20.00;10.27;;;2.60;99.90;;;;;;4962516;28;20072;-73
2023/03/12 10:49:23;;;;;;;19.13;11.52;;;2.80;99.90;;;;;;4975913;28;20095;-73
2023/03/12 10:52:16;;;;;;;20.13;11.68;;;2.90;99.90;;;;;;4970981;28;20042;-73
2023/03/12 10:54:43;;;;;;;19.02;11.82;;;3.10;99.90;;;;;;4982007;28;20042;-73
2023/03/12 10:57:11;;;;;;;23.02;13.32;;;3.20;99.90;;;;;;4985147;28;20567;-73
2023/03/12 10:59:43;;;;;;;20.73;12.68;;;3.30;99.90;;;;;;4967798;28;20046;-72
2023/03/12 11:02:27;;;;;;;23.33;13.93;;;3.50;99.90;;;;;;4985324;28;20461;-73
2023/03/12 11:04:53;;;;;;;30.77;15.02;;;3.60;99.90;;;;;;4982378;28;20046;-73
2023/03/12 11:07:26;;;;;;;24.40;14.90;;;3.70;99.90;;;;;;4984646;28;20534;-72
2023/03/12 11:10:07;;;;;;;31.55;15.73;;;3.90;99.90;;;;;;4983657;28;20046;-73
2023/03/12 11:12:38;;;;;;;29.92;16.98;;;4.10;99.90;;;;;;4972595;28;20049;-73
2023/03/12 11:15:26;;;;;;;30.80;17.77;;;4.30;99.90;;;;;;4985758;28;20046;-74
2023/03/12 11:18:18;;;;;;;28.98;18.17;;;4.50;99.90;;;;;;4993893;28;20505;-74
2023/03/12 11:20:44;;;;;;;32.15;18.33;;;4.70;99.90;;;;;;4992140;28;20056;-73
2023/03/12 11:23:22;;;;;;;34.00;17.88;;;4.90;99.90;;;;;;4978642;28;20141;-73
2023/03/12 11:26:10;;;;;;;31.30;17.65;;;5.10;99.90;;;;;;4969733;28;20120;-73
2023/03/12 11:28:39;;;;;;;27.40;16.15;;;5.20;99.90;;;;;;4974596;28;20129;-73
2023/03/12 11:31:14;;;;;;;30.17;20.77;;;5.40;99.90;;;;;;4984240;28;20038;-73
2023/03/12 11:33:40;;;;;;;22.70;16.50;;;5.50;99.90;;;;;;5000575;28;20062;-73
2023/03/12 11:36:20;;;;;;;26.92;16.98;;;5.60;99.90;;;;;;5001397;28;20049;-73
2023/03/12 11:38:49;;;;;;;24.67;16.23;;;5.60;99.90;;;;;;5008773;28;20414;-73
2023/03/12 11:41:35;;;;;;;27.65;16.88;;;5.70;99.90;;;;;;5010503;28;20049;-73
2023/03/12 11:44:25;;;;;;;23.88;16.02;;;5.70;99.90;;;;;;5003253;28;20378;-73
2023/03/12 11:47:27;;;;;;;26.30;16.50;;;5.70;99.90;;;;;;5010576;28;20765;-72
2023/03/12 11:49:52;;;;;;;26.23;15.95;;;5.70;99.90;;;;;;5022336;28;20565;-73
2023/03/12 11:52:30;;;;;;;29.50;19.07;;;5.80;99.90;;;;;;5000463;28;20118;-72
2023/03/12 11:55:24;;;;;;;34.75;19.25;;;5.90;99.90;;;;;;5014442;28;20106;-72
2023/03/12 11:58:29;;;;;;;39.63;16.83;;;6.00;99.90;;;;;;5008910;28;20071;-72
2023/03/12 12:01:20;;;;;;;41.47;17.95;;;6.20;99.90;;;;;;4986673;28;20611;-72
2023/03/12 12:04:04;;;;;;;43.45;17.05;;;6.30;99.90;;;;;;5011040;28;20057;-72
2023/03/12 13:04:47;;;;;;;21.75;4.88;;;8.90;99.90;;;;;;5034547;28;20052;-73
2023/03/12 13:07:19;;;;;;;19.38;4.47;;;8.90;99.90;;;;;;4986230;28;20061;-73
2023/03/12 13:09:46;;;;;;;25.73;4.13;;;8.80;99.90;;;;;;5017811;28;20516;-73
2023/03/12 13:12:14;;;;;;;23.33;5.32;;;8.80;99.90;;;;;;5025608;28;20684;-72
2023/03/12 13:14:42;;;;;;;25.33;4.38;;;8.80;99.90;;;;;;5053918;28;20040;-72
2023/03/12 13:17:19;;;;;;;19.38;4.55;;;8.80;99.90;;;;;;5057735;28;20056;-72
2023/03/12 13:19:49;;;;;;;27.65;5.70;;;8.80;99.90;;;;;;5038641;28;20102;-73
2023/03/12 13:22:37;;;;;;;28.83;5.32;;;8.70;99.90;;;;;;5073381;28;20044;-72
2023/03/12 13:25:06;;;;;;;28.45;5.78;;;8.70;99.90;;;;;;5032340;28;20048;-72
2023/03/12 13:27:44;;;;;;;22.48;5.05;;;8.70;99.90;;;;;;5032491;28;20085;-71
2023/03/12 13:30:32;;;;;;;23.98;5.43;;;8.70;99.90;;;;;;5051506;28;20127;-72
2023/03/12 13:32:58;;;;;;;30.52;6.00;;;8.70;99.90;;;;;;5060233;28;20053;-73
2023/03/12 13:35:23;;;;;;;31.93;5.57;;;8.80;99.90;;;;;;5037167;28;20040;-72
2023/03/12 13:37:52;;;;;;;27.10;5.23;;;8.90;99.90;;;;;;5048249;28;20376;-72
2023/03/12 13:40:30;;;;;;;25.45;5.03;;;8.90;99.90;;;;;;5047802;28;20066;-71
2023/03/12 13:46:40;;;;;;;25.05;5.40;;;9.10;99.90;;;;;;5068014;28;20078;-72
2023/03/12 13:52:55;;;;;;;28.20;4.50;;;9.30;99.90;;;;;;5066435;28;20043;-71
2023/03/12 13:55:27;;;;;;;30.45;5.40;;;9.40;99.90;;;;;;5048379;28;20510;-72
2023/03/12 13:58:08;;;;;;;23.60;5.57;;;9.50;99.90;;;;;;5047403;28;20044;-72
2023/03/12 14:00:48;;;;;;;33.38;5.20;;;9.60;99.90;;;;;;5046152;28;20040;-72
2023/03/12 14:03:35;;;;;;;30.50;6.03;;;9.70;99.90;;;;;;5035669;28;20048;-72